createdAt,value
2023-03-17T00:01:36.484Z,97141.53
2023-03-17T00:04:03.235Z,97156.41
2023-03-17T00:06:31.582Z,97159.59
2023-03-17T00:08:58.309Z,97167.28
2023-03-17T00:11:27.007Z,97111.78
2023-03-17T00:13:54.181Z,97168.63
2023-03-17T00:16:24.850Z,97163.09
2023-03-17T00:18:53.459Z,97170.94
2023-03-17T00:21:28.163Z,97171.16
2023-03-17T00:23:55.417Z,97179.78
2023-03-17T00:26:22.548Z,97178.28
2023-03-17T00:28:49.165Z,97175.66
2023-03-17T00:31:20.724Z,97186.09
2023-03-17T00:33:48.923Z,97187.03
2023-03-17T00:36:19.864Z,97107.16
2023-03-17T00:38:46.428Z,97180.41
2023-03-17T00:41:13.438Z,97106.50
2023-03-17T00:43:41.258Z,97162.75
2023-03-17T00:46:23.690Z,97174.59
2023-03-17T00:48:51.330Z,97161.06
2023-03-17T00:51:17.923Z,97166.91
2023-03-17T00:53:44.669Z,97169.47
2023-03-17T00:56:16.975Z,97161.41
2023-03-17T00:58:44.660Z,97154.81
2023-03-17T01:01:12.523Z,97182.91
2023-03-17T01:03:39.381Z,97094.22
2023-03-17T01:06:10.972Z,97187.84
2023-03-17T01:08:39.048Z,97137.97
2023-03-17T01:11:06.027Z,97174.81
2023-03-17T01:13:32.637Z,97175.06
2023-03-17T01:15:59.286Z,97185.09
2023-03-17T01:18:25.938Z,97183.59
2023-03-17T01:20:53.275Z,97179.22
2023-03-17T01:23:19.954Z,97186.19
2023-03-17T01:25:46.576Z,97158.53
2023-03-17T01:28:15.995Z,97186.75
2023-03-17T01:30:43.764Z,97182.22
2023-03-17T01:33:13.029Z,97180.22
2023-03-17T01:35:41.450Z,97182.97
2023-03-17T01:38:08.754Z,97181.84
2023-03-17T01:40:43.910Z,97130.19
2023-03-17T01:43:10.474Z,97181.94
2023-03-17T01:46:17.747Z,97179.63
2023-03-17T01:49:06.680Z,97173.81
2023-03-17T01:51:43.036Z,97173.50
2023-03-17T01:54:16.514Z,97186.38
2023-03-17T01:56:48.986Z,97165.47
2023-03-17T01:59:21.605Z,97186.03
2023-03-17T02:01:50.337Z,97187.69
2023-03-17T02:04:18.653Z,97211.19
2023-03-17T02:06:57.594Z,97089.59
2023-03-17T02:09:25.582Z,97210.34
2023-03-17T02:11:52.238Z,97197.25
2023-03-17T02:14:18.999Z,97202.25
2023-03-17T02:16:45.709Z,97206.56
2023-03-17T02:19:12.733Z,97196.69
2023-03-17T02:21:49.123Z,97207.97
2023-03-17T02:24:25.153Z,97201.22
2023-03-17T02:26:54.610Z,97205.06
2023-03-17T02:29:23.132Z,97210.91
2023-03-17T02:31:50.545Z,97207.03
2023-03-17T02:34:17.302Z,97210.06
2023-03-17T02:36:44.375Z,97211.19
2023-03-17T02:39:11.159Z,97092.88
2023-03-17T02:41:38.030Z,97205.28
2023-03-17T02:44:05.119Z,97137.88
2023-03-17T02:46:32.013Z,97167.47
2023-03-17T02:48:58.813Z,97206.16
2023-03-17T02:51:25.554Z,97223.03
2023-03-17T02:53:52.181Z,97191.28
2023-03-17T02:56:18.814Z,97229.91
2023-03-17T02:58:45.480Z,97170.75
2023-03-17T03:01:13.158Z,97233.91
2023-03-17T03:03:39.884Z,97241.22
2023-03-17T03:06:06.858Z,97172.72
2023-03-17T03:08:33.529Z,97241.72
2023-03-17T03:11:02.476Z,97234.47
2023-03-17T03:13:29.148Z,97236.72
2023-03-17T03:15:56.255Z,97239.66
2023-03-17T03:18:23.201Z,97257.53
2023-03-17T03:20:50.124Z,97252.09
2023-03-17T03:23:17.029Z,97236.47
2023-03-17T03:25:43.723Z,97256.13
2023-03-17T03:28:10.680Z,97227.13
2023-03-17T03:30:37.825Z,97244.53
2023-03-17T03:33:04.799Z,97262.91
2023-03-17T03:35:31.598Z,97269.88
2023-03-17T03:37:58.751Z,97248.38
2023-03-17T03:40:26.219Z,97265.84
2023-03-17T03:42:52.880Z,97259.06
2023-03-17T03:45:19.481Z,97261.97
2023-03-17T03:47:46.143Z,97225.41
2023-03-17T03:50:13.332Z,97264.53
2023-03-17T03:52:40.326Z,97215.88
2023-03-17T03:55:07.341Z,97257.94
2023-03-17T03:57:33.891Z,97259.22
2023-03-17T04:00:00.694Z,97264.22
2023-03-17T04:02:27.714Z,97266.63
2023-03-17T04:04:54.521Z,97243.47
2023-03-17T04:07:21.469Z,97268.09
2023-03-17T04:09:49.318Z,97281.69
2023-03-17T04:12:16.894Z,97283.25
2023-03-17T04:14:44.595Z,97279.69
2023-03-17T04:17:11.851Z,97284.56
2023-03-17T04:19:39.077Z,97283.56
2023-03-17T04:22:07.513Z,97295.81
2023-03-17T04:24:34.982Z,97288.41
2023-03-17T04:27:03.711Z,97304.25
2023-03-17T04:29:32.213Z,97294.72
2023-03-17T04:31:58.830Z,97302.91
2023-03-17T04:34:26.694Z,97300.00
2023-03-17T04:36:53.243Z,97299.06
2023-03-17T04:39:19.930Z,97317.44
2023-03-17T04:41:46.585Z,97390.69
2023-03-17T04:44:13.507Z,97274.41
2023-03-17T04:46:40.171Z,97331.66
2023-03-17T04:49:07.051Z,97320.53
2023-03-17T04:51:34.047Z,97319.06
2023-03-17T04:54:01.517Z,97340.19
2023-03-17T04:56:30.500Z,97326.66
2023-03-17T04:58:58.221Z,97334.41
2023-03-17T05:01:25.010Z,97336.50
2023-03-17T05:03:51.711Z,97282.97
2023-03-17T05:06:18.338Z,97334.56
2023-03-17T05:08:45.130Z,97341.63
2023-03-17T05:11:12.402Z,97330.69
2023-03-17T05:13:40.985Z,97352.44
2023-03-17T05:16:08.955Z,97248.78
2023-03-17T05:18:36.526Z,97331.00
2023-03-17T05:21:03.615Z,97332.97
2023-03-17T05:23:30.347Z,97270.56
2023-03-17T05:25:57.053Z,97331.47
2023-03-17T05:28:25.013Z,97328.25
2023-03-17T05:30:52.141Z,96973.44
2023-03-17T05:33:20.179Z,97286.81
2023-03-17T05:35:47.371Z,97322.09
2023-03-17T05:38:16.066Z,97329.31
2023-03-17T05:40:43.491Z,97342.53
2023-03-17T05:43:11.144Z,97331.00
2023-03-17T05:45:37.781Z,97336.41
2023-03-17T05:48:05.435Z,97319.94
2023-03-17T05:50:32.620Z,97328.00
2023-03-17T05:52:59.496Z,97338.47
2023-03-17T05:55:26.299Z,97358.19
2023-03-17T05:57:52.976Z,97353.97
2023-03-17T06:00:21.541Z,97351.53
2023-03-17T06:02:48.408Z,97174.72
2023-03-17T06:05:15.067Z,97360.31
2023-03-17T06:07:52.897Z,97311.50
2023-03-17T06:10:22.670Z,97335.34
2023-03-17T06:12:49.343Z,97370.09
2023-03-17T06:15:17.151Z,97358.44
2023-03-17T06:17:43.867Z,97387.28
2023-03-17T06:20:11.792Z,97390.53
2023-03-17T06:22:42.348Z,97328.75
2023-03-17T06:25:15.699Z,97411.66
2023-03-17T06:27:42.693Z,97374.63
2023-03-17T06:30:10.392Z,97399.03
2023-03-17T06:32:37.193Z,97423.88
2023-03-17T06:35:05.343Z,97420.00
2023-03-17T06:37:32.000Z,97403.66
2023-03-17T06:39:59.274Z,97414.72
2023-03-17T06:42:25.797Z,97417.63
2023-03-17T06:44:52.721Z,97429.31
2023-03-17T06:47:20.136Z,97413.78
2023-03-17T06:49:46.692Z,97427.06
2023-03-17T06:52:14.178Z,97416.06
2023-03-17T06:54:41.363Z,97410.13
2023-03-17T06:57:09.581Z,97416.53
2023-03-17T06:59:36.483Z,97433.09
2023-03-17T07:02:03.679Z,97457.63
2023-03-17T07:04:31.274Z,97406.88
2023-03-17T07:06:58.162Z,97315.47
2023-03-17T07:09:24.744Z,97431.03
2023-03-17T07:11:51.619Z,97432.50
2023-03-17T07:14:18.784Z,97434.03
2023-03-17T07:16:45.435Z,97441.50
2023-03-17T07:19:12.247Z,97444.75
2023-03-17T07:21:38.994Z,97383.78
2023-03-17T07:24:05.716Z,97449.19
2023-03-17T07:26:32.256Z,97445.34
2023-03-17T07:29:01.381Z,97445.94
2023-03-17T07:31:28.334Z,97420.91
2023-03-17T07:33:57.457Z,97433.19
2023-03-17T07:36:24.259Z,97438.09
2023-03-17T07:38:50.883Z,97431.41
2023-03-17T07:41:18.260Z,97439.19
2023-03-17T07:43:44.944Z,97319.09
2023-03-17T07:46:12.829Z,97427.00
2023-03-17T07:48:42.323Z,97446.13
2023-03-17T07:51:21.603Z,97447.84
2023-03-17T07:53:50.159Z,97450.38
2023-03-17T07:56:17.831Z,97466.91
2023-03-17T07:58:44.903Z,97447.25
2023-03-17T08:01:11.588Z,97422.41
2023-03-17T08:03:41.316Z,97433.88
2023-03-17T08:06:08.755Z,97454.69
2023-03-17T08:08:36.014Z,97474.28
2023-03-17T08:11:04.791Z,97447.38
2023-03-17T08:13:32.254Z,97319.03
2023-03-17T08:15:58.817Z,97454.63
2023-03-17T08:18:25.783Z,97472.16
2023-03-17T08:20:52.581Z,97397.94
2023-03-17T08:23:19.860Z,97453.69
2023-03-17T08:25:47.625Z,97458.50
2023-03-17T08:28:15.439Z,97454.03
2023-03-17T08:30:43.247Z,97458.66
2023-03-17T08:33:09.933Z,97427.22
2023-03-17T08:35:37.411Z,97432.22
2023-03-17T08:38:04.652Z,97380.03
2023-03-17T08:40:31.712Z,97456.97
2023-03-17T08:42:58.515Z,97461.34
2023-03-17T08:45:25.229Z,97391.59
2023-03-17T08:47:52.585Z,97100.94
2023-03-17T08:50:22.275Z,97471.19
2023-03-17T08:52:49.816Z,97469.78
2023-03-17T08:55:16.896Z,97473.75
2023-03-17T08:57:44.728Z,97455.44
2023-03-17T09:00:16.339Z,97469.22
2023-03-17T09:02:43.953Z,97463.69
2023-03-17T09:05:15.568Z,97451.44
2023-03-17T09:07:42.168Z,97468.03
2023-03-17T09:10:10.991Z,97360.09
2023-03-17T09:12:38.247Z,97488.75
2023-03-17T09:15:06.004Z,97467.16
2023-03-17T09:17:32.906Z,97479.72
2023-03-17T09:19:59.724Z,97454.94
2023-03-17T09:22:27.109Z,97483.09
2023-03-17T09:24:53.876Z,97469.44
2023-03-17T09:27:20.476Z,97466.69
2023-03-17T09:29:47.208Z,97470.22
2023-03-17T09:32:14.068Z,97477.81
2023-03-17T09:34:40.661Z,97471.09
2023-03-17T09:37:07.259Z,97459.16
2023-03-17T09:39:34.224Z,97468.66
2023-03-17T09:42:35.364Z,97397.03
2023-03-17T09:45:23.420Z,97467.53
2023-03-17T09:48:15.804Z,97469.75
2023-03-17T09:51:06.718Z,97463.59
2023-03-17T09:53:47.292Z,97476.63
2023-03-17T09:56:16.327Z,97356.16
2023-03-17T09:58:51.426Z,97433.63
2023-03-17T10:01:18.643Z,97465.84
2023-03-17T10:03:47.239Z,97465.06
2023-03-17T10:06:28.929Z,97464.00
2023-03-17T10:09:02.628Z,97458.25
2023-03-17T10:11:38.830Z,97459.34
2023-03-17T10:14:19.537Z,97458.91
2023-03-17T10:17:03.750Z,97466.69
2023-03-17T10:19:40.716Z,97462.25
2023-03-17T10:22:23.723Z,97356.38
2023-03-17T10:25:03.606Z,97399.81
2023-03-17T10:27:36.383Z,97442.50
2023-03-17T10:30:03.588Z,97461.34
2023-03-17T10:32:32.362Z,97462.38
2023-03-17T10:34:58.999Z,97420.47
2023-03-17T10:37:26.878Z,97386.13
2023-03-17T10:39:57.589Z,97457.50
2023-03-17T10:42:35.380Z,97463.13
2023-03-17T10:45:14.238Z,97420.66
2023-03-17T10:47:46.072Z,97301.75
2023-03-17T10:50:18.413Z,97445.00
2023-03-17T10:52:49.443Z,97451.75
2023-03-17T10:55:21.469Z,97452.84
2023-03-17T10:58:01.248Z,97456.97
2023-03-17T11:00:35.309Z,97424.88
2023-03-17T11:03:18.518Z,97415.00
2023-03-17T11:05:57.589Z,97430.69
2023-03-17T11:08:24.292Z,97441.19
2023-03-17T11:10:56.693Z,97425.50
2023-03-17T11:13:30.326Z,97439.31
2023-03-17T11:16:24.987Z,97411.53
2023-03-17T11:18:56.592Z,97447.41
2023-03-17T11:21:32.509Z,97446.50
2023-03-17T11:24:02.046Z,97444.22
2023-03-17T11:26:50.173Z,97430.84
2023-03-17T11:29:32.645Z,97431.53
2023-03-17T11:32:01.950Z,97441.88
2023-03-17T11:35:08.397Z,97350.00
2023-03-17T11:37:56.751Z,97430.84
2023-03-17T11:40:40.078Z,97409.91
2023-03-17T11:43:32.187Z,97435.00
2023-03-17T11:46:27.598Z,97434.53
2023-03-17T11:49:18.957Z,97436.25
2023-03-17T11:52:12.270Z,97426.47
2023-03-17T11:55:00.639Z,97433.13
2023-03-17T11:57:32.303Z,97443.34
2023-03-17T12:00:10.670Z,97430.75
2023-03-17T12:02:43.644Z,97421.44
2023-03-17T12:05:15.438Z,97431.09
2023-03-17T12:07:53.315Z,97401.19
2023-03-17T12:10:29.437Z,97441.63
2023-03-17T12:13:02.633Z,97293.72
2023-03-17T12:15:36.430Z,97432.31
2023-03-17T12:18:12.305Z,97371.06
2023-03-17T12:20:57.172Z,97415.66
2023-03-17T12:23:48.269Z,97421.22
2023-03-17T12:26:50.749Z,97429.91
2023-03-17T12:29:22.028Z,97421.19
2023-03-17T12:31:55.969Z,97426.25
2023-03-17T12:34:42.030Z,97318.13
2023-03-17T12:37:09.862Z,97429.31
2023-03-17T12:39:37.614Z,97403.47
2023-03-17T12:42:52.482Z,97432.88
2023-03-17T12:45:27.991Z,97436.84
2023-03-17T12:48:12.745Z,97431.84
2023-03-17T12:51:06.826Z,97431.28
2023-03-17T12:53:35.809Z,97349.44
2023-03-17T12:56:08.261Z,97425.88
2023-03-17T12:58:44.103Z,97425.59
2023-03-17T13:01:19.678Z,97442.13
2023-03-17T13:03:58.054Z,97430.19
2023-03-17T13:06:25.213Z,97403.16
2023-03-17T13:08:53.261Z,97412.91
2023-03-17T13:11:38.854Z,97418.66
2023-03-17T13:14:16.337Z,97427.22
2023-03-17T13:16:47.391Z,97443.13
2023-03-17T13:19:25.543Z,97447.41
2023-03-17T13:22:01.139Z,97403.16
2023-03-17T13:24:49.077Z,97129.75
2023-03-17T13:27:31.111Z,97458.97
2023-03-17T13:30:18.802Z,97450.25
2023-03-17T13:32:56.485Z,97450.31
2023-03-17T13:35:42.471Z,97426.13
2023-03-17T13:38:36.880Z,97451.41
2023-03-17T13:41:15.520Z,97440.69
2023-03-17T13:44:08.990Z,97444.13
2023-03-17T13:46:41.801Z,97436.97
2023-03-17T13:49:23.492Z,97446.56
2023-03-17T13:52:00.251Z,97446.31
2023-03-17T13:54:28.137Z,97431.91
2023-03-17T13:57:15.906Z,97420.25
2023-03-17T14:00:02.650Z,97387.19
2023-03-17T14:02:36.546Z,97398.38
2023-03-17T14:05:06.931Z,97436.69
2023-03-17T14:07:59.714Z,97430.53
2023-03-17T14:10:30.378Z,97332.44
2023-03-17T14:13:28.431Z,97365.94
2023-03-17T14:16:16.656Z,97446.47
2023-03-17T14:18:49.815Z,97423.19
2023-03-17T14:21:25.632Z,97310.63
2023-03-17T14:23:56.422Z,97366.41
2023-03-17T14:26:32.856Z,97441.94
2023-03-17T14:29:01.187Z,97437.09
2023-03-17T14:31:29.399Z,97439.50
2023-03-17T14:33:58.972Z,97434.81
2023-03-17T14:36:28.109Z,97027.66
2023-03-17T14:38:56.866Z,97444.13
2023-03-17T14:41:26.517Z,97427.03
2023-03-17T14:43:58.179Z,97374.66
2023-03-17T14:46:41.143Z,97437.06
2023-03-17T14:49:18.484Z,97435.03
2023-03-17T14:51:48.186Z,97407.41
2023-03-17T14:54:20.636Z,97440.91
2023-03-17T14:56:52.523Z,97433.25
2023-03-17T14:59:22.758Z,97430.25
2023-03-17T15:01:54.860Z,97425.22
2023-03-17T15:04:27.683Z,97422.41
2023-03-17T15:06:57.356Z,97421.97
2023-03-17T15:09:37.124Z,97427.56
2023-03-17T15:12:21.878Z,97406.03
2023-03-17T15:14:53.019Z,97078.84
2023-03-17T15:17:22.728Z,97438.69
2023-03-17T15:19:52.540Z,97427.91
2023-03-17T15:22:44.128Z,97350.22
2023-03-17T15:25:34.806Z,97426.72
2023-03-17T15:28:01.458Z,97429.53
2023-03-17T15:30:37.440Z,97422.38
2023-03-17T15:33:28.344Z,97435.47
2023-03-17T15:36:01.981Z,97422.25
2023-03-17T15:38:29.292Z,97432.63
2023-03-17T15:40:56.470Z,97412.94
2023-03-17T15:43:23.631Z,97391.84
2023-03-17T15:46:05.188Z,97442.31
2023-03-17T15:48:36.334Z,97442.03
2023-03-17T15:51:05.253Z,97446.00
2023-03-17T15:53:32.298Z,97449.25
2023-03-17T15:55:59.245Z,97355.69
2023-03-17T15:58:26.168Z,97433.41
2023-03-17T16:00:57.090Z,97429.06
2023-03-17T16:03:31.282Z,97458.84
2023-03-17T16:05:59.669Z,97453.22
2023-03-17T16:08:26.411Z,97455.75
2023-03-17T16:10:53.120Z,97453.00
2023-03-17T16:13:19.940Z,97450.50
2023-03-17T16:15:58.676Z,97438.03
2023-03-17T16:18:33.950Z,97467.16
2023-03-17T16:21:01.385Z,97319.97
2023-03-17T16:23:31.524Z,97386.75
2023-03-17T16:26:11.722Z,97464.91
2023-03-17T16:28:42.035Z,97459.53
2023-03-17T16:31:19.568Z,97464.84
2023-03-17T16:33:47.894Z,97411.03
2023-03-17T16:36:17.021Z,97447.03
2023-03-17T16:38:43.895Z,97470.00
2023-03-17T16:41:19.190Z,97480.88
2023-03-17T16:43:51.012Z,97467.59
2023-03-17T16:46:18.316Z,97472.66
2023-03-17T16:48:45.084Z,97477.06
2023-03-17T16:51:12.218Z,97470.75
2023-03-17T16:53:38.822Z,97476.56
2023-03-17T16:56:13.141Z,97422.50
2023-03-17T16:58:40.237Z,97483.13
2023-03-17T17:01:12.959Z,97412.78
2023-03-17T17:03:39.682Z,97491.88
2023-03-17T17:06:07.220Z,97408.41
2023-03-17T17:08:33.892Z,97484.66
2023-03-17T17:11:00.589Z,97490.91
2023-03-17T17:13:27.249Z,97494.53
2023-03-17T17:15:55.069Z,97489.00
2023-03-17T17:18:24.606Z,97416.97
2023-03-17T17:20:53.122Z,97492.72
2023-03-17T17:23:22.820Z,97493.66
2023-03-17T17:25:50.268Z,97421.97
2023-03-17T17:28:21.372Z,97495.19
2023-03-17T17:30:49.633Z,97451.84
2023-03-17T17:33:16.933Z,97493.59
2023-03-17T17:35:44.603Z,97493.69
2023-03-17T17:38:23.656Z,97499.00
2023-03-17T17:40:50.420Z,97491.19
2023-03-17T17:43:18.218Z,97468.44
2023-03-17T17:45:48.573Z,97478.56
2023-03-17T17:48:17.595Z,97457.34
2023-03-17T17:50:44.536Z,97498.06
2023-03-17T17:53:14.822Z,97495.84
2023-03-17T17:55:43.106Z,97498.34
2023-03-17T17:58:13.672Z,97436.88
2023-03-17T18:00:40.526Z,97493.59
2023-03-17T18:03:07.343Z,97464.03
2023-03-17T18:05:33.925Z,97484.97
2023-03-17T18:08:02.397Z,97507.25
2023-03-17T18:10:30.585Z,97439.72
2023-03-17T18:12:57.490Z,97494.72
2023-03-17T18:15:26.502Z,97492.97
2023-03-17T18:17:53.700Z,97424.06
2023-03-17T18:20:22.260Z,97497.38
2023-03-17T18:22:49.757Z,97399.25
2023-03-17T18:25:16.931Z,97495.72
2023-03-17T18:27:43.888Z,97492.53
2023-03-17T18:30:14.429Z,97497.06
2023-03-17T18:32:43.363Z,97479.78
2023-03-17T18:35:14.550Z,97506.50
2023-03-17T18:37:41.257Z,97511.50
2023-03-17T18:40:15.086Z,97510.56
2023-03-17T18:42:43.155Z,97511.19
2023-03-17T18:45:11.638Z,97507.16
2023-03-17T18:47:39.094Z,97487.34
2023-03-17T18:50:07.144Z,97468.13
2023-03-17T18:52:35.737Z,97518.81
2023-03-17T18:55:02.956Z,97491.34
2023-03-17T18:57:29.603Z,97462.47
2023-03-17T18:59:56.284Z,97508.91
2023-03-17T19:02:23.018Z,97455.19
2023-03-17T19:04:50.043Z,97517.31
2023-03-17T19:07:17.933Z,97518.09
2023-03-17T19:09:45.010Z,97535.25
2023-03-17T19:12:11.668Z,97497.81
2023-03-17T19:14:41.041Z,97426.44
2023-03-17T19:17:08.889Z,97527.78
2023-03-17T19:19:35.797Z,97540.91
2023-03-17T19:22:03.980Z,97531.66
2023-03-17T19:24:31.666Z,97486.00
2023-03-17T19:26:58.251Z,97532.97
2023-03-17T19:29:24.895Z,97527.97
2023-03-17T19:31:51.514Z,97470.00
2023-03-17T19:34:18.208Z,97466.94
2023-03-17T19:36:48.304Z,97529.41
2023-03-17T19:39:15.106Z,97526.53
2023-03-17T19:41:41.706Z,97521.69
2023-03-17T19:44:08.720Z,97351.78
2023-03-17T19:46:37.049Z,97518.75
2023-03-17T19:49:04.902Z,97522.81
2023-03-17T19:51:32.876Z,97520.41
2023-03-17T19:53:59.596Z,97466.81
2023-03-17T19:56:27.886Z,97512.50
2023-03-17T19:58:55.494Z,97511.34
2023-03-17T20:01:22.865Z,97457.97
2023-03-17T20:03:50.897Z,97512.38
2023-03-17T20:06:17.677Z,97512.66
2023-03-17T20:08:44.616Z,97507.38
2023-03-17T20:11:12.601Z,97468.94
2023-03-17T20:13:39.682Z,97525.63
2023-03-17T20:16:07.695Z,97517.03
2023-03-17T20:18:34.703Z,97524.00
2023-03-17T20:21:05.341Z,97519.97
2023-03-17T20:23:32.746Z,97497.88
2023-03-17T20:25:59.798Z,97519.84
2023-03-17T20:28:27.711Z,97482.03
2023-03-17T20:30:59.727Z,97504.66
2023-03-17T20:33:26.653Z,97529.00
2023-03-17T20:35:53.657Z,97526.25
2023-03-17T20:38:21.297Z,97531.72
2023-03-17T20:40:47.973Z,97529.13
2023-03-17T20:43:14.822Z,97527.06
2023-03-17T20:45:41.531Z,97422.22
2023-03-17T20:48:10.785Z,97538.50
2023-03-17T20:50:39.025Z,97533.50
2023-03-17T20:53:05.666Z,97531.03
2023-03-17T20:55:32.305Z,97535.69
2023-03-17T20:57:59.757Z,97539.38
2023-03-17T21:00:26.791Z,97534.59
2023-03-17T21:02:53.560Z,97522.44
2023-03-17T21:05:27.019Z,97532.47
2023-03-17T21:07:53.570Z,97415.22
2023-03-17T21:10:20.689Z,97537.81
2023-03-17T21:12:48.050Z,97479.84
2023-03-17T21:15:15.595Z,97488.78
2023-03-17T21:17:42.519Z,97529.91
2023-03-17T21:20:12.225Z,97529.59
2023-03-17T21:22:40.213Z,97525.38
2023-03-17T21:25:08.969Z,97506.59
2023-03-17T21:27:39.554Z,97529.00
2023-03-17T21:30:11.945Z,97529.31
2023-03-17T21:32:39.223Z,97530.28
2023-03-17T21:35:06.625Z,97529.22
2023-03-17T21:37:33.582Z,97468.53
2023-03-17T21:40:00.259Z,97526.75
2023-03-17T21:42:27.831Z,97480.25
2023-03-17T21:44:54.424Z,97516.25
2023-03-17T21:47:21.183Z,97513.16
2023-03-17T21:49:47.790Z,97518.94
2023-03-17T21:52:15.124Z,97507.19
2023-03-17T21:54:41.939Z,97496.94
2023-03-17T21:57:08.652Z,97522.00
2023-03-17T21:59:35.850Z,97504.97
2023-03-17T22:02:02.852Z,97502.97
2023-03-17T22:04:30.144Z,97397.88
2023-03-17T22:06:58.868Z,97512.34
2023-03-17T22:09:26.300Z,97525.69
2023-03-17T22:11:53.052Z,97503.94
2023-03-17T22:14:20.052Z,97463.63
2023-03-17T22:16:50.441Z,97504.56
2023-03-17T22:19:19.912Z,97515.81
2023-03-17T22:21:48.099Z,97472.50
2023-03-17T22:24:14.792Z,97488.47
2023-03-17T22:26:42.209Z,97509.94
2023-03-17T22:29:09.015Z,97503.28
2023-03-17T22:31:36.339Z,97510.34
2023-03-17T22:34:03.105Z,97493.75
2023-03-17T22:36:30.654Z,97504.88
2023-03-17T22:38:58.447Z,97481.69
2023-03-17T22:41:27.544Z,97506.09
2023-03-17T22:43:54.776Z,97507.69
2023-03-17T22:46:22.187Z,97516.41
2023-03-17T22:48:49.513Z,97415.63
2023-03-17T22:51:19.327Z,97484.38
2023-03-17T22:53:45.954Z,97520.34
2023-03-17T22:56:14.485Z,97491.31
2023-03-17T22:58:41.376Z,97504.44
2023-03-17T23:01:08.567Z,97502.22
2023-03-17T23:03:35.640Z,97507.91
2023-03-17T23:06:03.872Z,97512.56
2023-03-17T23:08:32.145Z,97485.81
2023-03-17T23:11:00.850Z,97520.44
2023-03-17T23:13:27.761Z,97517.97
2023-03-17T23:15:54.389Z,97524.03
2023-03-17T23:18:20.980Z,97521.13
2023-03-17T23:20:47.689Z,97521.66
2023-03-17T23:23:14.819Z,97519.22
2023-03-17T23:25:41.385Z,97517.41
2023-03-17T23:28:09.151Z,97487.25
2023-03-17T23:30:36.438Z,97509.72
2023-03-17T23:33:04.921Z,97487.25
2023-03-17T23:35:32.448Z,97425.34
2023-03-17T23:37:59.983Z,97497.00
2023-03-17T23:40:26.548Z,97498.91
2023-03-17T23:42:55.127Z,97481.81
2023-03-17T23:45:23.290Z,97510.63
2023-03-17T23:47:52.124Z,97461.50
2023-03-17T23:50:19.963Z,97397.47
2023-03-17T23:52:47.245Z,97521.16
2023-03-17T23:55:16.100Z,97415.88
2023-03-17T23:57:44.135Z,97501.22
